Time;durP1;ratioP1;P1;durP2;ratioP2;P2;SDS_P1;SDS_P2;PMS_P1;PMS_P2;Temp;Humidity;BMP_temperature;BMP_pressure;BME280_temperature;BME280_humidity;BME280_pressure;Samples;Min_cycle;Max_cycle;Signal;HPM_P1;HPM_P2
2021/06/12 00:01:19;;;;;;;;;;;;;;;14.65;83.48;99135.84;1647358;86;21529;-72
2021/06/12 00:03:46;;;;;;;8.63;5.78;;;;;;;14.63;83.60;99140.02;1680254;84;20128;-72
2021/06/12 00:06:12;;;;;;;7.17;6.05;;;;;;;14.56;83.88;99138.28;1678240;84;21539;-72
2021/06/12 00:08:39;;;;;;;7.87;5.65;;;;;;;14.57;84.21;99131.66;1691207;84;21060;-72
2021/06/12 00:11:05;;;;;;;;;;;;;;;14.58;84.26;99134.10;1679669;84;21033;-72
2021/06/12 00:13:32;;;;;;;8.23;5.45;;;;;;;14.59;84.09;99134.92;1691401;84;20109;-72
2021/06/12 00:15:58;;;;;;;6.70;5.80;;;;;;;14.53;84.11;99131.48;1717877;82;21071;-72
2021/06/12 00:18:26;;;;;;;10.30;5.33;;;;;;;14.50;84.04;99134.84;1732893;82;21557;-72
2021/06/12 00:20:56;;;;;;;6.65;5.70;;;;;;;14.48;83.95;99128.88;1645261;86;21039;-72
2021/06/12 00:23:23;;;;;;;7.00;5.47;;;;;;;14.45;83.92;99125.41;1722734;82;21589;-73
2021/06/12 00:25:49;;;;;;;8.60;5.62;;;;;;;14.45;83.90;99127.55;1710516;82;21018;-73
2021/06/12 00:28:15;;;;;;;8.65;6.10;;;;;;;14.47;83.92;99127.81;1648722;86;21066;-73
2021/06/12 00:30:42;;;;;;;9.08;6.17;;;;;;;14.43;83.91;99121.59;1714048;82;20987;-73
2021/06/12 00:33:08;;;;;;;;;;;;;;;14.38;84.13;99123.66;1730777;82;21052;-73
2021/06/12 00:35:34;;;;;;;9.58;6.70;;;;;;;14.34;84.24;99121.30;1713106;82;20126;-73
2021/06/12 00:38:01;;;;;;;9.93;6.80;;;;;;;14.29;84.44;99125.48;1642656;86;21095;-73
2021/06/12 00:40:27;;;;;;;;;;;;;;;14.29;84.48;99122.74;1730279;82;21019;-73
2021/06/12 00:42:53;;;;;;;9.33;5.67;;;;;;;14.29;84.41;99114.53;1721018;82;20169;-72
2021/06/12 00:45:23;;;;;;;6.85;5.65;;;;;;;14.27;84.55;99116.78;1715394;82;21082;-73
2021/06/12 00:47:52;;;;;;;7.42;6.30;;;;;;;14.27;84.43;99118.96;1728909;82;20955;-73
2021/06/12 00:50:19;;;;;;;8.68;7.37;;;;;;;14.26;84.43;99116.52;1727212;82;21028;-73
2021/06/12 00:52:46;;;;;;;9.35;6.42;;;;;;;14.25;84.72;99118.45;1661816;86;21007;-73
2021/06/12 00:55:14;;;;;;;7.95;6.53;;;;;;;14.28;84.40;99118.38;1726182;81;21015;-73
2021/06/12 00:57:41;;;;;;;7.30;6.60;;;;;;;14.26;84.02;99121.44;1744450;82;20984;-73
2021/06/12 01:00:15;;;;;;;7.70;6.78;;;;;;;14.20;83.90;99117.77;1736491;82;21584;-74
2021/06/12 01:02:41;;;;;;;11.33;6.50;;;;;;;14.18;84.28;99121.36;1729050;82;21046;-73
2021/06/12 01:05:09;;;;;;;;;;;;;;;14.21;84.62;99113.34;1731037;82;21019;-73
2021/06/12 01:07:36;;;;;;;8.18;6.72;;;;;;;14.23;84.67;99113.86;1728232;82;20105;-73
2021/06/12 01:10:05;;;;;;;10.45;6.78;;;;;;;14.23;84.83;99118.52;1738982;82;21046;-73
2021/06/12 01:12:49;;;;;;;6.78;5.95;;;;;;;14.20;84.71;99114.48;1737760;82;21295;-73
2021/06/12 01:15:15;;;;;;;8.70;6.37;;;;;;;14.15;84.47;99115.95;1729994;82;21035;-73
2021/06/12 01:17:54;;;;;;;;;;;;;;;14.12;84.22;99111.66;1728916;82;21030;-73
2021/06/12 01:21:07;;;;;;;7.42;6.53;;;;;;;14.09;84.04;99114.47;1730681;82;20149;-74
2021/06/12 01:24:15;;;;;;;16.60;6.72;;;;;;;14.00;84.25;99114.94;1659740;85;21075;-73
2021/06/12 01:27:17;;;;;;;7.40;5.80;;;;;;;13.95;84.43;99123.28;1724650;82;22091;-74
2021/06/12 01:30:13;;;;;;;8.18;6.47;;;;;;;13.91;84.50;99122.27;1746797;82;21016;-73
2021/06/12 01:32:43;;;;;;;9.28;6.30;;;;;;;13.86;84.31;99119.64;1674948;85;20996;-73
2021/06/12 01:35:23;;;;;;;10.13;6.17;;;;;;;13.81;84.27;99123.87;1727621;82;21517;-73
2021/06/12 01:37:50;;;;;;;15.68;6.30;;;;;;;13.81;84.33;99119.77;1739369;82;20944;-73
2021/06/12 01:40:17;;;;;;;8.30;6.47;;;;;;;13.79;84.31;99117.33;1744637;82;20991;-74
2021/06/12 01:42:46;;;;;;;7.83;5.90;;;;;;;13.79;84.35;99112.41;1748820;82;20979;-72
2021/06/12 01:45:13;;;;;;;8.75;6.00;;;;;;;13.75;84.46;99121.79;1744570;82;21019;-73
2021/06/12 01:47:39;;;;;;;9.60;5.45;;;;;;;13.78;84.73;99129.38;1729539;81;21023;-73
2021/06/12 01:50:09;;;;;;;8.43;6.67;;;;;;;13.81;84.49;99130.16;1684121;85;21059;-73
2021/06/12 01:52:36;;;;;;;10.32;6.92;;;;;;;13.81;84.14;99127.42;1734794;82;20988;-73
2021/06/12 01:55:03;;;;;;;9.58;6.78;;;;;;;13.76;83.95;99140.38;1706547;82;21447;-73
2021/06/12 01:57:30;;;;;;;12.33;7.03;;;;;;;13.67;84.08;99141.69;1723472;82;20968;-73
2021/06/12 01:59:56;;;;;;;;;;;;;;;13.63;84.04;99144.77;1649221;86;21132;-73
2021/06/12 02:02:22;;;;;;;10.82;6.75;;;;;;;13.61;83.87;99143.44;1668646;84;20160;-73
2021/06/12 02:04:50;;;;;;;9.90;7.20;;;;;;;13.56;84.06;99143.01;1715926;82;21663;-73
2021/06/12 02:07:19;;;;;;;9.68;6.95;;;;;;;13.57;84.01;99136.41;1658629;86;21608;-73
2021/06/12 02:09:47;;;;;;;8.03;6.35;;;;;;;13.56;83.99;99143.56;1710345;82;21051;-73
2021/06/12 02:12:15;;;;;;;11.18;6.80;;;;;;;13.54;84.09;99146.59;1644502;86;21090;-73
2021/06/12 02:14:41;;;;;;;12.25;6.60;;;;;;;13.55;84.17;99143.30;1719536;82;21099;-73
2021/06/12 02:17:09;;;;;;;10.70;7.35;;;;;;;13.57;84.18;99138.35;1715243;82;21011;-73
2021/06/12 02:19:36;;;;;;;13.15;6.78;;;;;;;13.59;84.42;99144.31;1640809;86;21149;-73
2021/06/12 02:22:04;;;;;;;11.40;7.37;;;;;;;13.59;84.67;99152.52;1725970;82;21008;-73
2021/06/12 02:24:30;;;;;;;13.22;7.00;;;;;;;13.58;84.59;99145.42;1717191;82;21094;-73
2021/06/12 02:26:57;;;;;;;10.98;7.22;;;;;;;13.58;84.68;99148.97;1652653;86;21000;-73
2021/06/12 02:29:23;;;;;;;9.35;7.33;;;;;;;13.56;84.82;99153.95;1714985;82;21095;-74
2021/06/12 02:31:53;;;;;;;10.75;7.65;;;;;;;13.56;85.01;99148.48;1654449;86;21027;-73
2021/06/12 02:34:19;;;;;;;10.55;7.55;;;;;;;13.57;85.19;99148.71;1712042;82;21561;-73
2021/06/12 02:36:46;;;;;;;10.32;7.37;;;;;;;13.56;85.34;99153.95;1717999;82;21036;-73
2021/06/12 02:39:12;;;;;;;9.60;6.15;;;;;;;13.59;85.52;99149.78;1644254;86;21070;-73
2021/06/12 02:41:39;;;;;;;8.50;6.17;;;;;;;13.58;85.55;99155.80;1719944;82;21530;-72
2021/06/12 02:44:06;;;;;;;10.28;6.08;;;;;;;13.56;85.57;99146.30;1656074;86;21083;-73
2021/06/12 02:46:36;;;;;;;10.23;7.35;;;;;;;13.59;85.52;99149.23;1722204;82;21478;-72
2021/06/12 02:49:05;;;;;;;8.63;6.75;;;;;;;13.61;85.49;99152.45;1653123;86;21927;-73
2021/06/12 02:51:36;;;;;;;12.85;8.63;;;;;;;13.65;85.57;99157.57;1715633;82;21035;-73
2021/06/12 02:54:02;;;;;;;12.78;9.28;;;;;;;13.70;85.70;99167.61;1641476;86;21047;-72
2021/06/12 02:56:31;;;;;;;12.93;8.30;;;;;;;13.76;85.92;99167.19;1718662;82;21561;-73
2021/06/12 02:59:01;;;;;;;11.03;8.35;;;;;;;13.84;86.05;99162.92;1722304;82;22113;-73
2021/06/12 03:01:27;;;;;;;9.00;7.92;;;;;;;13.92;86.01;99163.58;1719684;82;21054;-72
2021/06/12 03:03:55;;;;;;;9.58;7.10;;;;;;;13.99;86.01;99158.49;1733720;82;21601;-72
2021/06/12 03:06:21;;;;;;;9.93;8.28;;;;;;;14.10;86.15;99163.95;1716079;82;20996;-73
2021/06/12 03:08:51;;;;;;;12.82;7.97;;;;;;;14.27;86.45;99175.09;1700862;82;21035;-72
2021/06/12 03:11:17;;;;;;;10.10;8.10;;;;;;;14.54;86.79;99166.52;1701966;84;20980;-72
2021/06/12 03:13:46;;;;;;;9.25;7.47;;;;;;;14.89;86.78;99155.48;1649637;86;21087;-73
2021/06/12 03:16:14;;;;;;;12.53;7.70;;;;;;;15.22;86.76;99162.02;1678873;84;21039;-72
2021/06/12 03:18:43;;;;;;;10.70;7.50;;;;;;;15.50;86.13;99159.89;1696235;84;21047;-72
2021/06/12 03:21:10;;;;;;;10.55;8.30;;;;;;;15.76;85.28;99164.91;1722328;82;21099;-72
2021/06/12 03:23:36;;;;;;;9.90;8.30;;;;;;;15.95;83.71;99162.66;1654352;86;21384;-72
2021/06/12 03:26:03;;;;;;;;;;;;;;;16.09;82.93;99164.70;1694519;82;21027;-73
2021/06/12 03:28:30;;;;;;;;;;;;;;;16.29;82.28;99166.02;1732139;82;20129;-73
2021/06/12 03:31:01;;;;;;;;;;;;;;;16.39;81.71;99168.44;1718291;82;20435;-73
2021/06/12 03:33:28;;;;;;;9.43;8.43;;;;;;;16.48;81.18;99169.80;1715234;82;20118;-72
2021/06/12 03:35:54;;;;;;;9.48;7.65;;;;;;;16.61;79.84;99176.55;1656841;86;21039;-71
2021/06/12 03:38:20;;;;;;;;;;;;;;;16.79;79.17;99177.33;1729332;82;21047;-72
2021/06/12 03:40:46;;;;;;;9.10;7.55;;;;;;;16.88;78.32;99178.92;1732663;82;20116;-71
2021/06/12 03:43:12;;;;;;;;;;;;;;;16.88;77.61;99178.11;1651951;86;21527;-71
2021/06/12 03:45:41;;;;;;;8.53;7.47;;;;;;;16.96;77.46;99184.17;1675337;86;20172;-72
2021/06/12 03:48:08;;;;;;;8.28;6.87;;;;;;;17.14;77.11;99185.75;1719192;82;21071;-71
2021/06/12 03:50:35;;;;;;;14.43;7.25;;;;;;;17.34;76.60;99176.77;1721331;82;21494;-72
2021/06/12 03:53:04;;;;;;;9.73;7.65;;;;;;;17.48;75.69;99177.92;1711655;82;21570;-70
2021/06/12 03:55:32;;;;;;;9.70;7.60;;;;;;;17.60;75.35;99183.58;1737317;81;20952;-70
2021/06/12 03:57:59;;;;;;;8.83;7.35;;;;;;;17.78;75.13;99183.70;1717520;82;21048;-71
2021/06/12 04:00:25;;;;;;;;;;;;;;;18.11;74.25;99193.47;1729031;82;21522;-72
2021/06/12 04:02:51;;;;;;;8.63;6.75;;;;;;;18.30;73.28;99196.59;1737750;81;20165;-71
2021/06/12 04:05:18;;;;;;;7.95;6.75;;;;;;;18.32;72.86;99189.34;1722097;82;20988;-71
2021/06/12 04:07:45;;;;;;;7.12;6.42;;;;;;;18.42;72.13;99190.91;1718465;82;21593;-70
2021/06/12 04:10:11;;;;;;;8.50;6.05;;;;;;;18.55;71.69;99193.42;1717929;82;21028;-71
2021/06/12 04:12:38;;;;;;;7.37;6.58;;;;;;;18.68;71.32;99196.45;1659680;86;21083;-70
2021/06/12 04:15:06;;;;;;;7.60;6.72;;;;;;;18.86;70.75;99196.53;1714345;82;21019;-71
2021/06/12 04:17:33;;;;;;;12.43;6.47;;;;;;;18.97;70.10;99194.16;1734497;82;21062;-70
2021/06/12 04:19:59;;;;;;;8.00;6.58;;;;;;;19.16;69.95;99197.78;1651617;86;21639;-68
2021/06/12 04:22:27;;;;;;;7.10;6.37;;;;;;;19.31;69.33;99197.10;1711757;82;21011;-69
2021/06/12 04:24:53;;;;;;;8.08;6.17;;;;;;;19.49;68.71;99198.55;1709465;84;21620;-68
2021/06/12 04:27:19;;;;;;;7.97;6.15;;;;;;;19.67;67.91;99188.90;1729681;82;21979;-68
2021/06/12 04:29:46;;;;;;;7.40;6.70;;;;;;;19.79;68.04;99200.53;1722357;82;21052;-68
2021/06/12 04:32:12;;;;;;;9.35;7.47;;;;;;;19.91;67.52;99194.20;1718707;82;21043;-69
2021/06/12 04:34:39;;;;;;;7.70;5.97;;;;;;;19.95;67.04;99195.09;1658552;86;21078;-70
2021/06/12 04:37:08;;;;;;;7.58;6.67;;;;;;;20.05;67.51;99194.66;1716614;82;21074;-68
2021/06/12 04:39:34;;;;;;;7.30;6.17;;;;;;;20.25;67.11;99197.84;1719551;82;21019;-69
2021/06/12 04:42:00;;;;;;;6.45;5.70;;;;;;;20.55;67.05;99196.97;1664083;86;21577;-69
2021/06/12 04:44:27;;;;;;;7.05;5.78;;;;;;;20.80;65.93;99189.62;1709587;84;21031;-69
2021/06/12 04:46:53;;;;;;;6.70;5.28;;;;;;;20.87;65.83;99190.39;1645386;86;21059;-69
2021/06/12 04:49:20;;;;;;;5.87;5.28;;;;;;;20.90;64.97;99193.86;1730990;82;21023;-69
2021/06/12 04:51:46;;;;;;;6.42;4.95;;;;;;;20.96;64.87;99194.40;1739148;82;21083;-69
2021/06/12 04:54:12;;;;;;;4.95;4.20;;;;;;;21.06;64.25;99198.84;1728221;82;21043;-68
2021/06/12 04:56:41;;;;;;;6.47;4.45;;;;;;;21.34;64.56;99197.44;1731131;81;21027;-68
2021/06/12 04:59:08;;;;;;;6.95;4.67;;;;;;;21.84;63.75;99192.56;1745024;82;21047;-69
2021/06/12 05:01:34;;;;;;;6.87;4.60;;;;;;;22.35;62.38;99194.78;1734959;81;21279;-69
2021/06/12 05:04:00;;;;;;;4.95;4.40;;;;;;;22.56;60.12;99201.37;1724683;82;21449;-69
2021/06/12 05:06:27;;;;;;;4.83;3.90;;;;;;;22.40;60.42;99201.41;1734974;81;21014;-69
2021/06/12 05:08:53;;;;;;;5.15;4.10;;;;;;;22.60;60.26;99200.86;1665194;85;21716;-69
2021/06/12 05:11:20;;;;;;;5.95;3.83;;;;;;;23.01;61.06;99199.34;1724190;82;21070;-69
2021/06/12 05:13:47;;;;;;;4.80;3.45;;;;;;;23.12;58.47;99198.95;1725578;82;21042;-69
2021/06/12 05:16:14;;;;;;;5.62;3.72;;;;;;;23.09;58.49;99198.31;1730380;82;21070;-68
2021/06/12 05:18:44;;;;;;;7.00;4.35;;;;;;;23.01;57.54;99201.53;1726080;82;21042;-69
2021/06/12 05:21:09;;;;;;;6.03;4.35;;;;;;;22.98;58.15;99198.69;1724038;82;20987;-69
2021/06/12 05:23:36;;;;;;;8.03;3.90;;;;;;;22.92;59.55;99198.77;1733718;82;21050;-69
2021/06/12 05:26:06;;;;;;;5.92;3.50;;;;;;;23.05;59.59;99197.44;1731855;82;20935;-68
2021/06/12 05:28:32;;;;;;;5.00;4.10;;;;;;;23.00;59.86;99191.59;1725387;82;21027;-69
2021/06/12 05:30:58;;;;;;;4.97;3.70;;;;;;;22.97;58.54;99197.88;1730623;82;21001;-69
2021/06/12 05:33:25;;;;;;;7.05;3.62;;;;;;;22.96;58.21;99195.45;1724921;82;21585;-69
2021/06/12 05:35:52;;;;;;;4.92;3.52;;;;;;;22.91;59.68;99193.80;1734586;82;20979;-69
2021/06/12 05:38:19;;;;;;;5.65;3.70;;;;;;;23.02;60.25;99205.11;1728999;82;21561;-69
2021/06/12 05:40:45;;;;;;;4.30;3.15;;;;;;;23.15;59.80;99200.99;1733105;82;21050;-68
2021/06/12 05:43:12;;;;;;;4.42;4.03;;;;;;;23.21;60.35;99196.73;1662654;85;21067;-67
2021/06/12 05:45:38;;;;;;;4.70;3.50;;;;;;;23.51;60.55;99199.70;1730445;82;20978;-69
2021/06/12 05:48:06;;;;;;;4.17;3.40;;;;;;;24.08;58.95;99191.70;1753048;82;21597;-68
2021/06/12 05:50:32;;;;;;;6.37;3.83;;;;;;;24.46;55.63;99195.65;1738885;82;20975;-71
2021/06/12 05:52:58;;;;;;;5.00;3.45;;;;;;;24.46;55.63;99195.65;1730498;82;21024;-70
2021/06/12 05:55:25;;;;;;;3.85;3.30;;;;;;;24.71;55.88;99193.19;1743467;82;20994;-70
2021/06/12 05:57:52;;;;;;;4.12;3.42;;;;;;;25.01;53.50;99191.18;1661562;85;21080;-70
2021/06/12 06:00:19;;;;;;;3.85;3.05;;;;;;;25.13;51.93;99190.93;1721039;82;21016;-71
2021/06/12 06:02:46;;;;;;;4.40;3.25;;;;;;;25.11;52.51;99194.70;1726474;82;21034;-69
2021/06/12 06:05:13;;;;;;;4.30;2.90;;;;;;;25.07;51.51;99194.45;1720776;82;21043;-70
2021/06/12 06:07:39;;;;;;;4.50;3.08;;;;;;;24.95;51.45;99190.52;1724412;82;21011;-68
2021/06/12 06:10:07;;;;;;;4.17;2.72;;;;;;;25.04;51.62;99191.84;1728647;82;21058;-68
2021/06/12 06:12:34;;;;;;;6.28;3.10;;;;;;;25.07;51.15;99189.68;1712115;82;21000;-68
2021/06/12 06:15:04;;;;;;;2.90;2.52;;;;;;;25.06;50.38;99188.06;1716045;82;21020;-68
2021/06/12 06:17:30;;;;;;;3.12;2.52;;;;;;;25.07;50.31;99181.91;1718533;82;21027;-68
2021/06/12 06:19:56;;;;;;;4.10;2.90;;;;;;;25.08;50.64;99181.52;1642063;86;21079;-68
2021/06/12 06:22:23;;;;;;;5.08;2.90;;;;;;;25.08;49.92;99190.48;1719523;82;20976;-69
2021/06/12 06:24:49;;;;;;;3.02;2.35;;;;;;;25.17;49.64;99187.59;1643852;86;21039;-71
2021/06/12 06:27:16;;;;;;;3.25;2.50;;;;;;;25.37;50.75;99178.42;1715552;82;21553;-70
2021/06/12 06:29:42;;;;;;;2.62;2.40;;;;;;;25.54;49.07;99174.25;1720799;82;21039;-70
2021/06/12 06:32:09;;;;;;;3.77;2.67;;;;;;;25.35;48.67;99181.40;1712448;82;21070;-71
2021/06/12 06:34:35;;;;;;;4.67;2.70;;;;;;;25.27;48.93;99177.73;1714467;82;21589;-70
2021/06/12 06:37:02;;;;;;;3.75;2.60;;;;;;;25.15;47.91;99181.59;1708854;82;20992;-69
2021/06/12 06:39:28;;;;;;;3.60;2.92;;;;;;;24.95;48.98;99184.95;1711394;82;21039;-71
2021/06/12 06:41:55;;;;;;;4.10;2.72;;;;;;;24.91;49.55;99186.30;1720802;82;21011;-70
2021/06/12 06:44:21;;;;;;;2.90;2.42;;;;;;;24.80;48.89;99186.73;1653251;86;21130;-70
2021/06/12 06:46:48;;;;;;;3.05;2.70;;;;;;;24.77;49.72;99184.70;1711977;82;21067;-69
2021/06/12 06:49:15;;;;;;;3.40;2.58;;;;;;;24.84;49.38;99185.41;1715432;82;21486;-71
2021/06/12 06:51:41;;;;;;;4.28;2.52;;;;;;;24.96;48.81;99180.98;1663725;86;21536;-70
2021/06/12 06:54:08;;;;;;;3.98;3.10;;;;;;;25.01;49.84;99179.27;1709585;84;21123;-70
2021/06/12 06:56:35;;;;;;;3.72;2.58;;;;;;;25.16;48.46;99183.20;1658727;85;21071;-69
2021/06/12 06:59:01;;;;;;;3.08;2.45;;;;;;;25.25;48.75;99182.31;1660607;85;21070;-69
2021/06/12 07:01:29;;;;;;;4.70;3.05;;;;;;;25.24;47.50;99179.90;1687288;83;21010;-71
2021/06/12 07:03:55;;;;;;;3.12;2.65;;;;;;;25.40;47.09;99183.84;1745655;82;21027;-71
2021/06/12 07:06:22;;;;;;;3.83;2.35;;;;;;;25.36;47.35;99185.80;1723481;82;20959;-70
2021/06/12 07:08:48;;;;;;;3.92;2.80;;;;;;;25.21;47.59;99187.63;1717787;83;21108;-70
2021/06/12 07:11:15;;;;;;;5.15;3.02;;;;;;;25.07;49.46;99187.48;1681191;85;21043;-70
2021/06/12 07:13:42;;;;;;;4.12;2.47;;;;;;;24.96;47.70;99191.54;1677262;84;21075;-70
2021/06/12 07:16:08;;;;;;;5.28;3.20;;;;;;;24.84;48.02;99192.37;1661486;85;21551;-71
2021/06/12 07:18:35;;;;;;;2.87;2.30;;;;;;;24.86;48.20;99183.87;1671755;84;21117;-70
2021/06/12 07:21:02;;;;;;;3.10;2.35;;;;;;;24.91;47.70;99192.45;1683301;85;21044;-72
2021/06/12 07:23:29;;;;;;;2.98;2.33;;;;;;;24.95;47.62;99186.34;1677301;84;21138;-71
2021/06/12 07:25:55;;;;;;;3.08;2.40;;;;;;;25.13;47.05;99188.73;1687777;84;21027;-71
2021/06/12 07:28:21;;;;;;;3.22;2.40;;;;;;;25.37;47.48;99195.14;1687232;84;21060;-71
2021/06/12 07:30:48;;;;;;;3.22;2.15;;;;;;;25.74;48.61;99195.93;1689850;84;21004;-70
2021/06/12 07:33:14;;;;;;;3.72;2.42;;;;;;;25.97;47.16;99187.33;1696511;83;21593;-70
2021/06/12 07:35:42;;;;;;;2.72;2.08;;;;;;;26.05;46.27;99194.56;1732340;82;21076;-71
2021/06/12 07:38:08;;;;;;;3.85;2.50;;;;;;;25.91;45.94;99188.88;1729653;82;21593;-71
2021/06/12 07:40:35;;;;;;;2.67;2.20;;;;;;;25.79;46.64;99191.96;1725399;82;21031;-71
2021/06/12 07:43:01;;;;;;;4.10;2.17;;;;;;;25.89;45.85;99189.08;1717742;83;21058;-71
2021/06/12 07:45:27;;;;;;;3.00;2.58;;;;;;;25.96;43.95;99190.52;1731514;82;22020;-71
2021/06/12 07:47:54;;;;;;;3.35;2.27;;;;;;;25.79;43.50;99184.99;1734804;82;20999;-70
2021/06/12 07:50:20;;;;;;;3.27;2.00;;;;;;;25.78;46.57;99188.19;1727994;82;21031;-70
2021/06/12 07:52:46;;;;;;;3.40;1.95;;;;;;;25.80;44.87;99189.98;1747549;82;21045;-70
2021/06/12 07:55:14;;;;;;;3.30;2.30;;;;;;;25.91;44.79;99188.08;1732382;82;21054;-71
2021/06/12 07:57:41;;;;;;;3.27;2.45;;;;;;;26.12;45.30;99181.26;1656071;85;21090;-70
2021/06/12 08:00:09;;;;;;;3.98;2.27;;;;;;;26.08;44.67;99183.22;1709879;84;21864;-71
2021/06/12 08:02:42;;;;;;;2.75;2.50;;;;;;;25.89;45.88;99188.48;1710970;82;21043;-72
2021/06/12 08:05:08;;;;;;;2.80;2.33;;;;;;;25.90;44.66;99187.89;1720080;82;21014;-71
2021/06/12 08:07:35;;;;;;;4.20;2.42;;;;;;;25.73;44.96;99185.16;1729058;82;21075;-71
2021/06/12 08:10:03;;;;;;;2.62;1.75;;;;;;;25.43;45.03;99185.86;1723550;82;21482;-71
2021/06/12 08:12:31;;;;;;;3.92;2.30;;;;;;;25.37;47.07;99186.78;1646765;86;21599;-71
2021/06/12 08:14:59;;;;;;;2.15;1.90;;;;;;;25.55;45.83;99184.20;1709668;84;21095;-70
2021/06/12 08:17:26;;;;;;;3.00;2.10;;;;;;;25.73;46.46;99181.78;1733186;82;21040;-71
2021/06/12 08:19:52;;;;;;;3.52;2.40;;;;;;;25.83;46.09;99177.46;1646349;86;21087;-71
2021/06/12 08:22:19;;;;;;;3.50;2.20;;;;;;;25.87;45.29;99178.30;1710146;84;21525;-71
2021/06/12 08:24:45;;;;;;;3.52;2.50;;;;;;;25.77;45.59;99178.21;1718257;82;21020;-70
2021/06/12 08:27:11;;;;;;;2.90;2.00;;;;;;;25.73;45.61;99180.97;1721006;82;21628;-69
2021/06/12 08:29:38;;;;;;;2.77;2.02;;;;;;;25.85;45.70;99185.45;1719025;82;21572;-69
2021/06/12 08:32:06;;;;;;;2.15;1.65;;;;;;;25.94;46.07;99176.95;1624517;86;20999;-71
2021/06/12 08:34:32;;;;;;;3.55;2.30;;;;;;;26.01;47.28;99176.20;1709778;84;21067;-71
2021/06/12 08:37:02;;;;;;;3.72;2.20;;;;;;;26.04;46.19;99172.66;1657043;86;21066;-71
2021/06/12 08:39:28;;;;;;;2.65;1.92;;;;;;;25.99;46.06;99163.25;1720999;82;21418;-70
2021/06/12 08:41:55;;;;;;;2.33;1.98;;;;;;;25.68;46.52;99172.98;1713540;82;21418;-70
2021/06/12 08:44:25;;;;;;;3.33;2.30;;;;;;;25.53;48.30;99181.01;1711433;82;21040;-70
2021/06/12 08:46:55;;;;;;;3.30;2.33;;;;;;;25.49;48.46;99178.16;1717644;82;21008;-71
2021/06/12 08:49:21;;;;;;;6.05;2.20;;;;;;;25.71;48.63;99177.19;1716186;82;21117;-70
2021/06/12 08:51:48;;;;;;;3.75;2.25;;;;;;;25.87;48.49;99172.72;1717891;82;21550;-68
2021/06/12 08:54:18;;;;;;;4.03;2.37;;;;;;;25.96;48.17;99170.41;1718671;82;21067;-70
2021/06/12 08:56:46;;;;;;;3.98;2.52;;;;;;;26.14;48.39;99169.94;1654382;86;21081;-71
2021/06/12 08:59:14;;;;;;;4.12;2.40;;;;;;;26.38;48.23;99172.69;1732473;81;21327;-72
2021/06/12 09:01:43;;;;;;;3.50;2.15;;;;;;;26.43;46.72;99169.51;1747348;82;21035;-71
2021/06/12 09:04:09;;;;;;;3.62;2.33;;;;;;;26.31;46.72;99161.48;1730649;82;21537;-71
2021/06/12 09:06:36;;;;;;;4.22;2.50;;;;;;;26.26;44.91;99168.82;1673068;85;21587;-71
2021/06/12 09:09:03;;;;;;;3.30;2.58;;;;;;;26.07;44.88;99162.11;1684665;84;21425;-70
2021/06/12 09:11:34;;;;;;;3.10;2.35;;;;;;;26.13;45.77;99161.95;1736480;82;21596;-72
2021/06/12 09:14:01;;;;;;;4.78;2.30;;;;;;;26.50;45.61;99166.75;1727338;82;21055;-71
2021/06/12 09:16:38;;;;;;;3.60;2.55;;;;;;;26.57;44.47;99163.22;1730813;82;21024;-69
2021/06/12 09:19:09;;;;;;;4.12;2.50;;;;;;;26.36;45.97;99162.49;1734249;82;21518;-71
2021/06/12 09:21:41;;;;;;;4.65;2.60;;;;;;;26.08;46.40;99159.52;1730468;82;21487;-69
2021/06/12 09:24:24;;;;;;;2.90;2.60;;;;;;;25.80;47.51;99163.49;1727069;82;21039;-70
2021/06/12 09:26:54;;;;;;;4.85;3.08;;;;;;;25.57;48.21;99163.73;1736880;82;21547;-72
2021/06/12 09:29:20;;;;;;;4.65;2.45;;;;;;;25.38;48.43;99170.87;1725655;82;21055;-71
2021/06/12 09:31:52;;;;;;;4.33;3.00;;;;;;;25.40;48.20;99164.34;1733091;82;21498;-72
2021/06/12 09:34:23;;;;;;;3.22;2.92;;;;;;;25.47;48.72;99158.84;1721223;82;21121;-71
2021/06/12 09:36:50;;;;;;;3.45;2.67;;;;;;;25.54;48.60;99161.09;1730119;82;21050;-70
2021/06/12 09:39:22;;;;;;;5.12;3.20;;;;;;;25.53;48.04;99157.31;1733444;82;21114;-69
2021/06/12 09:41:51;;;;;;;4.83;2.80;;;;;;;25.49;48.21;99151.69;1727357;82;21032;-70
2021/06/12 09:44:38;;;;;;;4.60;3.22;;;;;;;25.77;48.25;99148.35;1728820;82;21064;-69
2021/06/12 09:47:18;;;;;;;3.50;2.90;;;;;;;26.14;48.91;99145.42;1724752;82;21031;-70
2021/06/12 09:49:45;;;;;;;4.58;3.77;;;;;;;26.45;46.31;99146.22;1726885;82;21099;-71
2021/06/12 09:52:14;;;;;;;4.60;3.17;;;;;;;26.26;45.01;99136.73;1717766;83;21497;-72
2021/06/12 09:54:44;;;;;;;4.37;3.70;;;;;;;26.22;46.45;99135.33;1735390;82;21115;-71
2021/06/12 09:57:16;;;;;;;5.05;3.33;;;;;;;26.07;47.30;99133.64;1728442;82;21015;-71
2021/06/12 09:59:48;;;;;;;3.42;3.00;;;;;;;25.87;46.74;99139.26;1723041;82;21042;-70
2021/06/12 10:02:38;;;;;;;4.25;3.62;;;;;;;25.45;47.13;99134.13;1735704;82;21032;-71
2021/06/12 10:05:09;;;;;;;4.80;2.90;;;;;;;25.24;48.77;99133.35;1735668;82;20987;-70
2021/06/12 10:07:36;;;;;;;3.40;2.92;;;;;;;25.30;49.21;99126.02;1670291;85;21036;-71
2021/06/12 10:12:48;;;;;;;5.22;3.17;;;;;;;25.82;47.38;99122.11;1876603;75;23501;-71
2021/06/12 10:15:16;;;;;;;3.98;3.20;;;;;;;25.97;47.09;99120.40;1790065;79;21073;-71
2021/06/12 10:17:48;;;;;;;3.47;3.15;;;;;;;26.24;46.78;99123.78;1811458;79;21011;-71
2021/06/12 10:20:17;;;;;;;5.15;2.80;;;;;;;26.51;45.92;99119.52;1818685;79;20944;-71
2021/06/12 10:22:45;;;;;;;3.40;2.35;;;;;;;26.72;45.30;99117.39;1815710;79;21003;-72
2021/06/12 10:25:13;;;;;;;3.05;2.30;;;;;;;26.68;44.72;99114.59;1823844;78;20975;-72
2021/06/12 10:27:40;;;;;;;3.35;2.45;;;;;;;26.74;44.27;99109.44;1809829;79;21035;-72
2021/06/12 10:30:12;;;;;;;5.40;2.83;;;;;;;26.89;44.70;99101.31;1794533;79;21007;-71
2021/06/12 10:32:46;;;;;;;3.90;2.52;;;;;;;27.02;43.72;99101.16;1818700;78;21048;-71
2021/06/12 10:35:18;;;;;;;4.25;3.08;;;;;;;27.06;44.01;99101.16;1816437;78;21446;-71
2021/06/12 10:38:15;;;;;;;2.87;2.47;;;;;;;27.29;44.03;99090.39;1819600;78;21032;-71
2021/06/12 10:40:48;;;;;;;4.10;2.80;;;;;;;27.29;44.81;99089.00;1802637;79;21381;-71
2021/06/12 10:43:21;;;;;;;3.50;2.70;;;;;;;27.21;42.08;99088.19;1785418;78;21764;-71
2021/06/12 10:46:08;;;;;;;4.83;2.50;;;;;;;27.08;42.13;99090.38;1794050;78;21948;-71
2021/06/12 10:48:59;;;;;;;3.90;2.40;;;;;;;27.11;42.86;99080.61;1782168;79;21074;-71
2021/06/12 10:51:34;;;;;;;6.22;2.77;;;;;;;27.25;42.19;99076.22;1817690;79;20990;-71
2021/06/12 10:54:26;;;;;;;3.27;2.40;;;;;;;27.24;41.80;99078.83;1809727;78;21005;-70
2021/06/12 10:57:00;;;;;;;4.03;2.30;;;;;;;27.18;43.33;99080.61;1810338;78;20974;-74
2021/06/12 10:59:50;;;;;;;3.22;2.45;;;;;;;27.35;41.25;99073.42;1793257;78;21006;-71
2021/06/12 11:05:02;;;;;;;3.27;2.55;;;;;;;27.64;41.30;99075.03;1812487;78;21572;-68
2021/06/12 11:07:38;;;;;;;2.98;2.35;;;;;;;27.86;40.56;99074.40;1788895;79;21002;-70
2021/06/12 11:10:19;;;;;;;2.80;2.10;;;;;;;28.05;40.70;99079.55;1795218;79;20999;-69
2021/06/12 11:12:51;;;;;;;4.03;1.90;;;;;;;28.07;38.90;99070.18;1802542;79;21003;-69
2021/06/12 11:15:27;;;;;;;7.12;6.35;;;;;;;27.88;37.86;99071.98;1801661;79;20967;-68
2021/06/12 11:18:22;;;;;;;5.65;4.75;;;;;;;27.65;40.04;99078.03;1801306;79;20988;-71
2021/06/12 11:21:03;;;;;;;5.53;4.03;;;;;;;27.31;41.19;99089.41;1806887;78;20979;-68
2021/06/12 11:23:46;;;;;;;14.23;4.55;;;;;;;26.59;44.25;99084.06;1790216;79;21633;-70
2021/06/12 11:26:14;;;;;;;5.58;3.58;;;;;;;25.67;45.35;99083.58;1790025;79;21058;-70
2021/06/12 11:28:42;;;;;;;3.62;1.85;;;;;;;24.81;45.82;99076.20;1812951;79;21081;-69
2021/06/12 11:31:28;;;;;;;2.08;1.20;;;;;;;24.21;45.86;99077.70;1793658;79;21545;-71
2021/06/12 11:34:15;;;;;;;3.33;1.10;;;;;;;23.73;43.18;99069.68;1794651;79;21608;-71
2021/06/12 11:36:42;;;;;;;1.67;1.20;;;;;;;23.27;44.54;99058.64;1802644;79;21094;-69
2021/06/12 11:39:11;;;;;;;2.72;1.27;;;;;;;23.48;44.92;99053.23;1770336;79;21094;-70
2021/06/12 11:41:37;;;;;;;1.45;1.00;;;;;;;23.48;44.92;99053.23;1764841;79;21494;-70
2021/06/12 11:44:04;;;;;;;1.72;0.93;;;;;;;23.65;44.14;99057.66;1812349;79;21066;-70
2021/06/12 11:46:42;;;;;;;3.27;1.22;;;;;;;23.72;42.77;99053.59;1810520;79;21634;-70
2021/06/12 11:49:08;;;;;;;2.22;0.93;;;;;;;23.78;41.94;99054.86;1757044;81;21048;-70
2021/06/12 11:51:39;;;;;;;3.17;1.20;;;;;;;23.85;42.58;99052.77;1769444;79;21031;-70